Bei Facebook empfehlenBei Twitter postenGoogle plusPinterest

Das Wetter im Erzgebirge am 26.03.2017

Wetter und Klima am 26.03.2017 Holzhau im Erzgebirge (630m ü.NN)
Letzte gemessene Temperatur und Uhrzeit der Messung23:45:00 Uhr-2.10 °C
Temperatur (Maximum / Höchstwert) und Uhrzeit der Messung14:30:00 Uhr11.50 °C
Temperatur (Minimum / Tiefstwert) und Uhrzeit der Messung04:30:00-3.10 °C
Errechneter Absolutwert der Temperaturschwankungen zwischen Tmin und Tmax des Tages14.60 K
Errechnete Tagesmitteltemperatur3.58044 °C
Gesamt - Niederschlag des Tages (in flüssiger Form)0.00 Liter / m²
Luftdruck (Maximum / Höchstwert) und Zeitpunkt der Messung23:45:00 Uhr1022.10 hPa
Luftdruck (Minimum / Tiefstwert) und Zeitpunkt der Messung05:30:00 Uhr1018.00 hPa
Errechneter Absolutwert der Luftdruckschwankungen des Tages4.10 hPa
Höchste gemessene Windgeschwindigkeit und Uhrzeit der Messung14:15:00 Uhr12.96 km/h
Errechnete Windhäufigkeit in Relation zu den Messwerten des Tages28.26087 %
Niedrigste Windkühle (Windchill) und Zeitpunkt der Messung22:30:00 Uhr-4.80 °C
Taupunkt (Maximum / Höchstwert) und Uhrzeit der Messung09:30:00 Uhr0.60 °C
Taupunkt (Minimum / Tiefstwert) und Uhrzeit der Messung23:30:00-6.20 °C
Anzahl der automatisch eingelesenen Messwerte 92

Detaillierte Wetter- und Klima- Messwerte für den 26.03.2017 in Holzhau im Erzgebirge (630m ü.NN)
ZeitTemperaturLuftdruckRel. LuftfeuchteWindWindrichtungWindchillTaupunktNiederschlag l/m²
23:45:00-2.10 °C1022.10 hPa77.00 %-6.00 °C 
23:30:00-1.90 °C1022.10 hPa75.00 %-6.20 °C 
23:15:00-1.60 °C1022.10 hPa76.00 %-5.70 °C 
23:00:00-1.80 °C1022.10 hPa77.00 %6.48 km/hOSO-4.30 °C-5.70 °C 
22:45:00-1.70 °C1022.00 hPa75.00 %-6.00 °C 
22:30:00-1.50 °C1022.10 hPa75.00 %9.00 km/hSO-4.80 °C-5.80 °C 
22:15:00-1.30 °C1021.90 hPa74.00 %0.72 km/hSO-1.30 °C-5.80 °C 
22:00:00-1.00 °C1021.80 hPa73.00 %-5.70 °C 
21:45:00-0.60 °C1021.80 hPa72.00 %6.84 km/hOSO-3.00 °C-5.50 °C 
21:30:00-0.20 °C1021.40 hPa71.00 %-5.40 °C 
21:15:000.10 °C1021.50 hPa70.00 %1.08 km/hO0.10 °C-4.70 °C 
21:00:000.40 °C1021.60 hPa69.00 %4.68 km/hSO0.40 °C-4.60 °C 
20:45:000.70 °C1021.50 hPa68.00 %-4.50 °C 
20:30:000.90 °C1021.40 hPa67.00 %6.84 km/hO-1.30 °C-4.50 °C 
20:15:001.20 °C1021.40 hPa63.00 %-5.00 °C 
20:00:002.10 °C1021.20 hPa60.00 %-4.80 °C 
19:45:003.10 °C1021.20 hPa57.00 %-4.60 °C 
19:30:004.40 °C1021.10 hPa54.00 %3.24 km/hOSO4.40 °C-4.10 °C 
19:15:005.90 °C1021.00 hPa48.00 %-4.30 °C 
19:00:006.90 °C1020.80 hPa45.00 %-4.20 °C 
18:45:007.90 °C1021.00 hPa43.00 %-3.90 °C 
18:30:008.60 °C1020.70 hPa40.00 %8.28 km/hONO7.30 °C-4.20 °C 
18:15:009.30 °C1020.70 hPa39.00 %-3.90 °C 
18:00:009.90 °C1020.70 hPa39.00 %-3.40 °C 
17:45:0010.30 °C1021.00 hPa40.00 %-2.70 °C 
17:30:0010.50 °C1020.90 hPa40.00 %-2.50 °C 
17:15:0010.60 °C1020.70 hPa39.00 %-2.80 °C 
17:00:0010.60 °C1020.80 hPa39.00 %1.80 km/hOSO10.60 °C-2.80 °C 
16:45:0010.90 °C1020.70 hPa39.00 %-2.50 °C 
16:30:0011.20 °C1020.70 hPa41.00 %3.60 km/hSO11.20 °C-1.50 °C 
16:15:0010.90 °C1020.80 hPa41.00 %-1.80 °C 
16:00:0011.20 °C1021.00 hPa40.00 %-1.90 °C 
15:45:0011.10 °C1020.90 hPa41.00 %1.80 km/hN11.10 °C-1.60 °C 
15:30:0011.20 °C1021.10 hPa41.00 %6.48 km/hO10.70 °C-1.50 °C 
15:15:0011.10 °C1021.10 hPa42.00 %-1.30 °C 
15:00:0011.10 °C1021.10 hPa42.00 %-1.30 °C 
14:45:0010.90 °C1021.00 hPa40.00 %6.84 km/hOSO10.30 °C-2.10 °C 
14:30:0011.50 °C1020.70 hPa43.00 %-0.60 °C 
14:15:0011.10 °C1020.80 hPa43.00 %12.96 km/hOSO9.50 °C-1.00 °C 
14:00:0010.90 °C1020.70 hPa43.00 %6.48 km/hONO10.40 °C-1.20 °C 
13:45:0010.60 °C1020.60 hPa45.00 %9.00 km/hSSO9.50 °C-0.80 °C 
13:30:0010.20 °C1020.50 hPa46.00 %7.20 km/hNO9.40 °C-0.90 °C 
13:15:0010.10 °C1020.60 hPa47.00 %-0.70 °C 
13:00:009.40 °C1020.60 hPa46.00 %-1.60 °C 
12:45:009.20 °C1020.40 hPa49.00 %-0.90 °C 
12:30:008.90 °C1020.40 hPa48.00 %-1.50 °C 
12:15:009.00 °C1020.40 hPa49.00 %-1.10 °C 
12:00:009.00 °C1020.50 hPa50.00 %3.24 km/hSSO9.00 °C-0.90 °C 
11:45:008.60 °C1020.40 hPa49.00 %3.96 km/hOSO8.60 °C-1.50 °C 
11:30:008.50 °C1020.50 hPa51.00 %-1.00 °C 
11:15:008.10 °C1020.40 hPa54.00 %4.32 km/hSO8.10 °C-0.60 °C 
11:00:007.80 °C1020.30 hPa53.00 %8.28 km/hSSO6.40 °C-1.20 °C 
10:45:007.50 °C1020.10 hPa57.00 %-0.50 °C 
10:30:007.30 °C1020.00 hPa60.00 %0.10 °C 
10:15:006.80 °C1019.90 hPa62.00 %0.00 °C 
10:00:006.10 °C1019.80 hPa64.00 %12.60 km/hSSO3.50 °C-0.20 °C 
09:45:005.60 °C1019.60 hPa67.00 %5.40 km/hSO4.60 °C0.00 °C 
09:30:004.60 °C1019.40 hPa75.00 %9.72 km/hOSO2.20 °C0.60 °C 
09:15:003.50 °C1019.10 hPa80.00 %0.40 °C 
09:00:002.40 °C1018.90 hPa84.00 %0.00 °C 
08:45:001.30 °C1018.70 hPa86.00 %-0.80 °C 
08:30:000.40 °C1018.70 hPa87.00 %-1.50 °C 
08:15:00-0.30 °C1018.70 hPa87.00 %-2.40 °C 
08:00:00-1.00 °C1018.60 hPa88.00 %-2.90 °C 
07:45:00-1.70 °C1018.20 hPa87.00 %-3.80 °C 
07:30:000.40 °C1018.70 hPa87.00 %-1.50 °C 
07:15:00-0.30 °C1018.70 hPa87.00 %-2.40 °C 
07:00:00-1.00 °C1018.60 hPa88.00 %-2.90 °C 
06:45:00-1.70 °C1018.20 hPa87.00 %-3.80 °C 
06:30:00-1.60 °C1018.40 hPa86.00 %-3.90 °C 
06:15:00-0.90 °C1018.40 hPa86.00 %-3.20 °C 
06:00:00-0.50 °C1018.30 hPa87.00 %9.00 km/hSO-3.60 °C-2.60 °C 
05:45:00-0.80 °C1018.10 hPa89.00 %-2.60 °C 
05:30:00-1.10 °C1018.00 hPa90.00 %-2.70 °C 
05:15:00-1.50 °C1018.00 hPa91.00 %-2.90 °C 
05:00:00-2.10 °C1018.20 hPa90.00 %-3.70 °C 
04:45:00-2.90 °C1018.50 hPa89.00 %-4.60 °C 
04:30:00-3.10 °C1018.50 hPa88.00 %-5.00 °C 
04:15:00-3.00 °C1018.40 hPa88.00 %-4.90 °C 
04:00:00-2.90 °C1018.30 hPa88.00 %-4.80 °C 
03:45:00-2.50 °C1018.40 hPa87.00 %-4.60 °C 
03:30:00-1.90 °C1018.40 hPa87.00 %-4.00 °C 
03:15:00-1.60 °C1018.50 hPa88.00 %-3.50 °C 
03:00:00-1.60 °C1018.60 hPa89.00 %-3.40 °C 
01:45:00-2.10 °C1018.60 hPa89.00 %-3.90 °C 
01:30:00-2.60 °C1018.80 hPa87.00 %-4.70 °C 
01:15:00-2.40 °C1018.80 hPa87.00 %-4.50 °C 
01:00:00-2.10 °C1018.90 hPa86.00 %-4.40 °C 
00:45:00-1.80 °C1018.80 hPa86.00 %-4.10 °C 
00:30:00-1.60 °C1018.90 hPa85.00 %-4.00 °C 
00:15:00-1.20 °C1018.80 hPa85.00 %-3.70 °C 
00:00:00-0.90 °C1018.70 hPa85.00 %-3.40 °C 

Permanenter Link zu dieser Seite: Wetter im Erzgebirge am 26.03.2017
Performance-Info: Die Erstellung der Seite / Statistik(en) / Tabelle(n) erforderte 5 Datenbankserver-Abfrage(n) und dauerte 121 Millisekunden. (Dieser Messwert ist von der Gesamt-Auslastung des Servers abhängig.)
Erzgebirge - Wetter | Erzgebirge - Wetter (Mobilgeräte) | Komplette Klimadatenbank